EPA2505 ZSWX-ZSWX
Flight info
| Callsign | EPA2505 |
|---|---|
| Flight time | N/A |
| Altitude | 1500 |
| Route | CIRCUIT PATTERN |
| Aircraft | B738/M-RW/LB2 |
Departure
| Time | 2026-05-04 03:31 |
|---|---|
| Airport | Sunan Shuofang International Airport (ZSWX) |
Arrival
| Time | N/A |
|---|---|
| Airport | Sunan Shuofang International Airport (ZSWX) |
| Time | Latitude | Longitude | Altitude | Speed | Heading |
|---|---|---|---|---|---|
| 2026-05-04 03:29 | 31.51019 | 120.43612 | 24 ft | 0 kts | 200° |
| 2026-05-04 03:30 | 31.51018 | 120.43611 | 24 ft | 1 kts | 200° |
| 2026-05-04 03:30 | 31.50924 | 120.43571 | 24 ft | 43 kts | 200° |
| 2026-05-04 03:31 | 31.50411 | 120.43350 | 27 ft | 112 kts | 200° |
| 2026-05-04 03:31 | 31.49487 | 120.42954 | 42 ft | 166 kts | 200° |
| 2026-05-04 03:31 | 31.48404 | 120.42494 | 715 ft | 165 kts | 201° |
| 2026-05-04 03:31 | 31.47492 | 120.41714 | 1316 ft | 171 kts | 237° |
| 2026-05-04 03:32 | 31.47170 | 120.40391 | 1500 ft | 173 kts | 275° |
| 2026-05-04 03:32 | 31.47648 | 120.39105 | 1533 ft | 179 kts | 316° |
| 2026-05-04 03:32 | 31.48753 | 120.38487 | 1512 ft | 178 kts | 356° |
| 2026-05-04 03:32 | 31.49944 | 120.38802 | 1499 ft | 178 kts | 23° |
| 2026-05-04 03:33 | 31.51106 | 120.39301 | 1497 ft | 178 kts | 19° |
| 2026-05-04 03:33 | 31.52270 | 120.39779 | 1523 ft | 177 kts | 20° |
| 2026-05-04 03:33 | 31.53440 | 120.40257 | 1487 ft | 178 kts | 18° |
| 2026-05-04 03:33 | 31.54614 | 120.40747 | 1581 ft | 181 kts | 21° |
| 2026-05-04 03:34 | 31.55780 | 120.41236 | 1586 ft | 178 kts | 17° |
| 2026-05-04 03:34 | 31.56830 | 120.41902 | 1557 ft | 171 kts | 45° |
| 2026-05-04 03:34 | 31.57329 | 120.43099 | 1458 ft | 163 kts | 85° |
| 2026-05-04 03:34 | 31.57063 | 120.44355 | 1303 ft | 162 kts | 125° |
| 2026-05-04 03:35 | 31.56172 | 120.45129 | 1120 ft | 161 kts | 162° |
| 2026-05-04 03:35 | 31.55072 | 120.45213 | 936 ft | 160 kts | 189° |
| 2026-05-04 03:35 | 31.53989 | 120.44883 | 691 ft | 161 kts | 199° |
| 2026-05-04 03:35 | 31.52939 | 120.44447 | 453 ft | 158 kts | 200° |
| 2026-05-04 03:36 | 31.51911 | 120.43996 | 234 ft | 158 kts | 201° |
| 2026-05-04 03:36 | 31.50884 | 120.43553 | 38 ft | 156 kts | 200° |
| 2026-05-04 03:36 | 31.49933 | 120.43144 | 23 ft | 138 kts | 200° |
| 2026-05-04 03:36 | 31.48959 | 120.42730 | 82 ft | 167 kts | 199° |
| 2026-05-04 03:37 | 31.47895 | 120.42281 | 740 ft | 161 kts | 207° |
| 2026-05-04 03:37 | 31.47126 | 120.41335 | 1202 ft | 171 kts | 250° |
| 2026-05-04 03:37 | 31.47103 | 120.39953 | 1434 ft | 178 kts | 291° |
| 2026-05-04 03:37 | 31.47884 | 120.38821 | 1480 ft | 182 kts | 331° |
| 2026-05-04 03:38 | 31.49088 | 120.38581 | 1463 ft | 177 kts | 13° |
| 2026-05-04 03:38 | 31.50242 | 120.39032 | 1476 ft | 174 kts | 18° |
| 2026-05-04 03:38 | 31.51373 | 120.39503 | 1523 ft | 176 kts | 20° |
| 2026-05-04 03:38 | 31.52555 | 120.40003 | 1506 ft | 184 kts | 20° |
| 2026-05-04 03:39 | 31.53762 | 120.40499 | 1480 ft | 183 kts | 19° |
| 2026-05-04 03:39 | 31.54935 | 120.40967 | 1525 ft | 173 kts | 19° |
| 2026-05-04 03:39 | 31.56054 | 120.41460 | 1510 ft | 171 kts | 28° |
| 2026-05-04 03:39 | 31.56859 | 120.42417 | 1466 ft | 165 kts | 66° |
| 2026-05-04 03:40 | 31.56953 | 120.43727 | 1360 ft | 163 kts | 106° |
| 2026-05-04 03:40 | 31.56306 | 120.44782 | 1169 ft | 163 kts | 147° |
| 2026-05-04 03:40 | 31.55238 | 120.45126 | 979 ft | 160 kts | 182° |
| 2026-05-04 03:40 | 31.54146 | 120.44894 | 736 ft | 160 kts | 195° |
| 2026-05-04 03:41 | 31.53093 | 120.44503 | 489 ft | 157 kts | 200° |
| 2026-05-04 03:41 | 31.52071 | 120.44065 | 268 ft | 156 kts | 200° |
| 2026-05-04 03:41 | 31.51051 | 120.43625 | 56 ft | 156 kts | 201° |
| 2026-05-04 03:41 | 31.50099 | 120.43215 | 26 ft | 139 kts | 200° |
| 2026-05-04 03:42 | 31.49114 | 120.42794 | 48 ft | 170 kts | 199° |
| 2026-05-04 03:42 | 31.47996 | 120.42332 | 697 ft | 167 kts | 201° |
| 2026-05-04 03:42 | 31.47081 | 120.41489 | 1300 ft | 177 kts | 237° |
| 2026-05-04 03:42 | 31.46730 | 120.40105 | 1461 ft | 182 kts | 273° |
| 2026-05-04 03:43 | 31.47164 | 120.38738 | 1507 ft | 181 kts | 311° |
| 2026-05-04 03:43 | 31.48219 | 120.37990 | 1490 ft | 180 kts | 349° |
| 2026-05-04 03:43 | 31.49443 | 120.38129 | 1525 ft | 178 kts | 18° |
| 2026-05-04 03:43 | 31.50611 | 120.38587 | 1531 ft | 180 kts | 18° |
| 2026-05-04 03:44 | 31.51802 | 120.39082 | 1518 ft | 183 kts | 19° |
| 2026-05-04 03:44 | 31.52999 | 120.39580 | 1541 ft | 183 kts | 19° |
| 2026-05-04 03:44 | 31.54205 | 120.40068 | 1518 ft | 181 kts | 19° |
| 2026-05-04 03:44 | 31.55360 | 120.40551 | 1526 ft | 173 kts | 20° |
| 2026-05-04 03:45 | 31.56402 | 120.41203 | 1444 ft | 171 kts | 46° |
| 2026-05-04 03:45 | 31.56863 | 120.42426 | 1341 ft | 165 kts | 89° |
| 2026-05-04 03:45 | 31.56573 | 120.43697 | 1183 ft | 162 kts | 121° |
| 2026-05-04 03:45 | 31.55783 | 120.44614 | 1041 ft | 160 kts | 152° |
| 2026-05-04 03:46 | 31.54717 | 120.44920 | 874 ft | 160 kts | 181° |
| 2026-05-04 03:46 | 31.53619 | 120.44729 | 635 ft | 160 kts | 198° |
| 2026-05-04 03:46 | 31.52576 | 120.44275 | 395 ft | 160 kts | 201° |
| 2026-05-04 03:46 | 31.51539 | 120.43833 | 160 ft | 157 kts | 201° |
| 2026-05-04 03:47 | 31.50572 | 120.43420 | 27 ft | 139 kts | 200° |
| 2026-05-04 03:47 | 31.49707 | 120.43047 | 22 ft | 130 kts | 200° |
| 2026-05-04 03:47 | 31.48714 | 120.42620 | 87 ft | 170 kts | 200° |
| 2026-05-04 03:47 | 31.47628 | 120.42137 | 768 ft | 165 kts | 208° |
| 2026-05-04 03:48 | 31.46856 | 120.41151 | 1346 ft | 174 kts | 248° |
| 2026-05-04 03:48 | 31.46765 | 120.39736 | 1514 ft | 181 kts | 287° |
| 2026-05-04 03:48 | 31.47492 | 120.38557 | 1525 ft | 183 kts | 327° |
| 2026-05-04 03:48 | 31.48699 | 120.38211 | 1515 ft | 181 kts | 7° |
| 2026-05-04 03:49 | 31.49906 | 120.38649 | 1518 ft | 183 kts | 20° |
| 2026-05-04 03:49 | 31.51112 | 120.39148 | 1526 ft | 184 kts | 19° |
| 2026-05-04 03:49 | 31.52296 | 120.39637 | 1526 ft | 181 kts | 19° |
| 2026-05-04 03:49 | 31.53483 | 120.40112 | 1510 ft | 178 kts | 18° |
| 2026-05-04 03:50 | 31.54640 | 120.40563 | 1508 ft | 171 kts | 18° |
| 2026-05-04 03:50 | 31.55749 | 120.40990 | 1523 ft | 166 kts | 19° |
| 2026-05-04 03:50 | 31.56720 | 120.41635 | 1536 ft | 158 kts | 44° |
| 2026-05-04 03:50 | 31.57236 | 120.42764 | 1347 ft | 162 kts | 80° |
| 2026-05-04 03:51 | 31.57098 | 120.44057 | 1170 ft | 161 kts | 115° |
| 2026-05-04 03:51 | 31.56362 | 120.45014 | 956 ft | 160 kts | 150° |
| 2026-05-04 03:51 | 31.55295 | 120.45271 | 820 ft | 160 kts | 185° |
| 2026-05-04 03:51 | 31.54213 | 120.44984 | 681 ft | 159 kts | 199° |
| 2026-05-04 03:52 | 31.53176 | 120.44541 | 492 ft | 158 kts | 201° |
| 2026-05-04 03:52 | 31.52161 | 120.44103 | 293 ft | 157 kts | 200° |
| 2026-05-04 03:52 | 31.51133 | 120.43662 | 82 ft | 157 kts | 200° |
| 2026-05-04 03:52 | 31.50124 | 120.43226 | 31 ft | 151 kts | 200° |
| 2026-05-04 03:53 | 31.49117 | 120.42790 | 38 ft | 169 kts | 200° |
| 2026-05-04 03:53 | 31.47995 | 120.42317 | 664 ft | 169 kts | 200° |
| 2026-05-04 03:53 | 31.46832 | 120.42175 | 1353 ft | 175 kts | 168° |
| 2026-05-04 03:53 | 31.45744 | 120.42823 | 1518 ft | 179 kts | 133° |
| 2026-05-04 03:54 | 31.45242 | 120.44127 | 1498 ft | 179 kts | 92° |
| 2026-05-04 03:54 | 31.45594 | 120.45466 | 1508 ft | 175 kts | 49° |
| 2026-05-04 03:54 | 31.46594 | 120.46266 | 1529 ft | 177 kts | 25° |
| 2026-05-04 03:54 | 31.47750 | 120.46777 | 1511 ft | 177 kts | 18° |
| 2026-05-04 03:55 | 31.48914 | 120.47220 | 1498 ft | 175 kts | 18° |
| 2026-05-04 03:55 | 31.50064 | 120.47656 | 1503 ft | 173 kts | 18° |
| 2026-05-04 03:55 | 31.51188 | 120.48082 | 1488 ft | 171 kts | 18° |
| 2026-05-04 03:55 | 31.52330 | 120.48511 | 1515 ft | 174 kts | 18° |
| 2026-05-04 03:56 | 31.53466 | 120.48937 | 1517 ft | 178 kts | 18° |
| 2026-05-04 03:56 | 31.54635 | 120.49375 | 1516 ft | 175 kts | 18° |
| 2026-05-04 03:56 | 31.55760 | 120.49799 | 1514 ft | 168 kts | 18° |
| 2026-05-04 03:56 | 31.56895 | 120.50195 | 1505 ft | 169 kts | 7° |
| 2026-05-04 03:57 | 31.57988 | 120.49897 | 1510 ft | 163 kts | 322° |
| 2026-05-04 03:57 | 31.58541 | 120.48808 | 1511 ft | 159 kts | 276° |
| 2026-05-04 03:57 | 31.58456 | 120.47541 | 1503 ft | 156 kts | 254° |
| 2026-05-04 03:57 | 31.57802 | 120.46585 | 1422 ft | 158 kts | 206° |
| 2026-05-04 03:58 | 31.55745 | 120.45656 | 1024 ft | 160 kts | 201° |
| 2026-05-04 03:58 | 31.54694 | 120.45190 | 795 ft | 162 kts | 201° |
| 2026-05-04 03:58 | 31.53645 | 120.44736 | 589 ft | 158 kts | 201° |
| 2026-05-04 03:59 | 31.52618 | 120.44298 | 370 ft | 156 kts | 201° |
| 2026-05-04 03:59 | 31.51605 | 120.43864 | 169 ft | 154 kts | 201° |
| 2026-05-04 03:59 | 31.50609 | 120.43434 | 28 ft | 148 kts | 200° |
| 2026-05-04 03:59 | 31.49711 | 120.43048 | 22 ft | 131 kts | 200° |
| 2026-05-04 04:00 | 31.48773 | 120.42645 | 37 ft | 165 kts | 199° |
| 2026-05-04 04:00 | 31.47703 | 120.42200 | 655 ft | 164 kts | 201° |
| 2026-05-04 04:00 | 31.46799 | 120.41369 | 1245 ft | 175 kts | 239° |
| 2026-05-04 04:00 | 31.46519 | 120.39996 | 1430 ft | 178 kts | 278° |
| 2026-05-04 04:01 | 31.47063 | 120.38726 | 1452 ft | 178 kts | 320° |
| 2026-05-04 04:01 | 31.48179 | 120.38249 | 1501 ft | 174 kts | 4° |
| 2026-05-04 04:01 | 31.49355 | 120.38577 | 1520 ft | 176 kts | 18° |
| 2026-05-04 04:01 | 31.50508 | 120.39021 | 1506 ft | 175 kts | 18° |
| 2026-05-04 04:02 | 31.51657 | 120.39473 | 1505 ft | 174 kts | 19° |
| 2026-05-04 04:02 | 31.52809 | 120.39930 | 1498 ft | 174 kts | 18° |
| 2026-05-04 04:02 | 31.53949 | 120.40385 | 1499 ft | 173 kts | 19° |
| 2026-05-04 04:02 | 31.55089 | 120.40839 | 1504 ft | 173 kts | 19° |
| 2026-05-04 04:03 | 31.55928 | 120.41172 | 1508 ft | 173 kts | 19° |
| 2026-05-04 04:03 | 31.56619 | 120.41448 | 1501 ft | 172 kts | 19° |
| 2026-05-04 04:03 | 31.57755 | 120.41899 | 1507 ft | 172 kts | 19° |
| 2026-05-04 04:04 | 31.58878 | 120.42348 | 1506 ft | 167 kts | 19° |
| 2026-05-04 04:04 | 31.59966 | 120.42782 | 1517 ft | 164 kts | 19° |
| 2026-05-04 04:04 | 31.60858 | 120.43538 | 1514 ft | 158 kts | 59° |
| 2026-05-04 04:04 | 31.60998 | 120.44774 | 1508 ft | 157 kts | 108° |
| 2026-05-04 04:05 | 31.60326 | 120.45747 | 1522 ft | 157 kts | 147° |
| 2026-05-04 04:05 | 31.59331 | 120.46233 | 1517 ft | 158 kts | 161° |
| 2026-05-04 04:05 | 31.58246 | 120.46403 | 1518 ft | 158 kts | 180° |
| 2026-05-04 04:05 | 31.57142 | 120.46284 | 1288 ft | 160 kts | 200° |
| 2026-05-04 04:06 | 31.56130 | 120.45794 | 1089 ft | 156 kts | 200° |
| 2026-05-04 04:06 | 31.55119 | 120.45377 | 893 ft | 153 kts | 200° |
| 2026-05-04 04:06 | 31.54456 | 120.45094 | 749 ft | 152 kts | 201° |
| 2026-05-04 04:06 | 31.53456 | 120.44663 | 555 ft | 153 kts | 200° |
| 2026-05-04 04:07 | 31.52457 | 120.44230 | 332 ft | 154 kts | 200° |
| 2026-05-04 04:07 | 31.51110 | 120.43649 | 69 ft | 154 kts | 201° |
| 2026-05-04 04:07 | 31.50456 | 120.43370 | 28 ft | 145 kts | 200° |
| 2026-05-04 04:07 | 31.49535 | 120.42973 | 27 ft | 149 kts | 200° |
| 2026-05-04 04:08 | 31.48095 | 120.42375 | 636 ft | 166 kts | 200° |
| 2026-05-04 04:08 | 31.47192 | 120.41569 | 1350 ft | 168 kts | 238° |
| 2026-05-04 04:08 | 31.46912 | 120.40731 | 1568 ft | 168 kts | 260° |
| 2026-05-04 04:08 | 31.46944 | 120.39316 | 1634 ft | 179 kts | 278° |
| 2026-05-04 04:09 | 31.47131 | 120.37880 | 2276 ft | 176 kts | 279° |
| 2026-05-04 04:09 | 31.47307 | 120.36481 | 3221 ft | 179 kts | 278° |
| 2026-05-04 04:09 | 31.47505 | 120.34910 | 3615 ft | 211 kts | 278° |
| 2026-05-04 04:09 | 31.47719 | 120.33135 | 4118 ft | 225 kts | 278° |
| 2026-05-04 04:10 | 31.47945 | 120.31292 | 4846 ft | 232 kts | 278° |
| 2026-05-04 04:10 | 31.48176 | 120.29408 | 5766 ft | 233 kts | 279° |
| 2026-05-04 04:10 | 31.48251 | 120.28798 | 6086 ft | 232 kts | 279° |